Time;durP1;ratioP1;P1;durP2;ratioP2;P2;SDS_P1;SDS_P2;PMS_P1;PMS_P2;Temp;Humidity;BMP_temperature;BMP_pressure;BME280_temperature;BME280_humidity;BME280_pressure;Samples;Min_cycle;Max_cycle;Signal;HPM_P1;HPM_P2
2022/07/08 00:00:43;;;;;;;9.00;2.35;;;;;;;15.94;76.55;98857.84;4364682;32;20350;-72
2022/07/08 00:03:11;;;;;;;6.30;2.40;;;;;;;15.87;76.97;98859.53;4364560;32;20229;-72
2022/07/08 00:05:38;;;;;;;3.10;2.17;;;;;;;15.85;77.17;98857.06;4364699;32;20099;-72
2022/07/08 00:08:05;;;;;;;2.37;2.17;;;;;;;15.84;77.21;98851.97;4364548;32;20536;-72
2022/07/08 00:10:33;;;;;;;6.25;2.50;;;;;;;15.80;77.44;98854.09;4364426;32;20087;-72
2022/07/08 00:13:00;;;;;;;4.43;2.40;;;;;;;15.73;77.87;98858.37;4364632;32;20095;-72
2022/07/08 00:15:27;;;;;;;3.15;2.42;;;;;;;15.72;78.05;98846.97;4364411;32;20121;-71
2022/07/08 00:17:54;;;;;;;2.30;2.10;;;;;;;15.73;78.17;98845.16;4364621;32;20114;-72
2022/07/08 00:20:21;;;;;;;4.60;2.70;;;;;;;15.65;78.70;98847.81;4364305;32;20170;-72
2022/07/08 00:22:49;;;;;;;3.55;2.20;;;;;;;15.64;78.82;98852.28;4364545;32;20413;-72
2022/07/08 00:25:16;;;;;;;3.10;2.25;;;;;;;15.65;78.94;98850.47;4364458;32;20450;-72
2022/07/08 00:27:43;;;;;;;2.55;2.35;;;;;;;15.61;79.25;98850.81;4364358;32;20161;-72
2022/07/08 00:30:12;;;;;;;4.18;2.25;;;;;;;15.57;79.58;98857.41;4364551;32;20087;-72
2022/07/08 00:32:39;;;;;;;3.67;2.47;;;;;;;15.53;79.85;98850.81;4364398;32;20102;-72
2022/07/08 00:35:07;;;;;;;2.72;2.22;;;;;;;15.44;80.30;98844.72;4364493;32;20095;-72
2022/07/08 00:37:34;;;;;;;4.05;2.55;;;;;;;15.47;80.37;98848.00;4364729;32;20102;-72
2022/07/08 00:40:03;;;;;;;3.25;2.30;;;;;;;15.40;80.70;98848.69;4364356;32;20087;-72
2022/07/08 00:42:30;;;;;;;5.03;2.47;;;;;;;15.33;81.16;98849.50;4364321;32;20154;-72
2022/07/08 00:44:57;;;;;;;3.95;2.60;;;;;;;15.28;81.55;98852.66;4364614;32;20096;-72
2022/07/08 00:47:25;;;;;;;2.70;2.47;;;;;;;15.27;81.71;98848.34;4364235;32;20087;-72
2022/07/08 00:49:52;;;;;;;6.18;2.72;;;;;;;15.17;82.27;98842.41;4364411;32;20083;-72
2022/07/08 00:52:20;;;;;;;4.05;2.53;;;;;;;15.14;82.55;98848.00;4350934;32;20107;-72
2022/07/08 00:54:48;;;;;;;5.20;2.83;;;;;;;15.08;82.97;98852.16;4350902;32;20115;-72
2022/07/08 00:57:15;;;;;;;3.92;2.40;;;;;;;15.10;83.02;98846.72;4350946;32;20114;-71
2022/07/08 00:59:43;;;;;;;4.12;2.80;;;;;;;15.08;83.24;98852.16;4350802;32;20083;-72
2022/07/08 01:02:10;;;;;;;5.62;2.80;;;;;;;14.98;84.05;98844.38;4350855;32;20161;-71
2022/07/08 01:04:37;;;;;;;4.78;2.65;;;;;;;15.01;84.39;98844.06;4364346;32;20154;-72
2022/07/08 01:07:06;;;;;;;2.72;2.53;;;;;;;14.95;85.04;98847.34;4364063;32;20088;-71
2022/07/08 01:09:34;;;;;;;3.00;2.30;;;;;;;14.92;85.43;98845.03;4364198;32;20138;-72
2022/07/08 01:12:01;;;;;;;4.37;2.62;;;;;;;14.94;85.39;98850.16;4364165;32;20091;-72
2022/07/08 01:14:28;;;;;;;3.87;2.92;;;;;;;14.86;85.84;98845.69;4364208;32;20103;-72
2022/07/08 01:16:56;;;;;;;3.78;2.67;;;;;;;14.83;86.18;98841.56;4363899;32;20091;-72
2022/07/08 01:19:23;;;;;;;5.12;3.33;;;;;;;14.85;86.25;98844.03;4364140;32;20091;-72
2022/07/08 01:21:50;;;;;;;3.30;2.58;;;;;;;14.78;86.85;98837.78;4364020;32;20094;-72
2022/07/08 01:24:18;;;;;;;4.78;2.95;;;;;;;14.82;86.87;98833.81;4364019;32;20121;-72
2022/07/08 01:26:45;;;;;;;3.10;2.40;;;;;;;14.78;87.19;98837.78;4363926;32;20441;-72
2022/07/08 01:29:13;;;;;;;4.35;2.65;;;;;;;14.86;86.80;98835.16;4363889;32;20113;-72
2022/07/08 01:31:41;;;;;;;13.55;3.15;;;;;;;14.82;86.98;98825.91;4350643;32;20422;-72
2022/07/08 01:34:08;;;;;;;5.35;3.03;;;;;;;14.82;86.82;98833.81;4363968;32;20115;-72
2022/07/08 01:36:36;;;;;;;4.30;2.83;;;;;;;14.79;86.50;98816.53;4364003;32;20122;-72
2022/07/08 01:39:03;;;;;;;3.12;2.67;;;;;;;14.81;86.22;98817.16;4363840;32;20138;-72
2022/07/08 01:41:30;;;;;;;4.50;2.80;;;;;;;14.81;86.06;98811.09;4363857;32;20095;-72
2022/07/08 01:43:57;;;;;;;9.50;2.40;;;;;;;14.80;85.97;98810.25;4364007;32;20111;-72
2022/07/08 01:46:25;;;;;;;4.22;2.65;;;;;;;14.83;85.70;98809.09;4363774;32;20095;-72
2022/07/08 01:48:52;;;;;;;3.25;2.53;;;;;;;14.91;85.11;98809.09;4363706;32;20086;-72
2022/07/08 01:51:19;;;;;;;3.10;2.70;;;;;;;14.97;84.72;98803.16;4364005;32;20498;-72
2022/07/08 01:53:47;;;;;;;6.50;2.78;;;;;;;14.99;84.61;98801.19;4350730;32;20111;-72
2022/07/08 01:56:14;;;;;;;3.33;2.58;;;;;;;15.04;84.32;98798.88;4363642;32;20091;-72
2022/07/08 01:58:41;;;;;;;5.50;2.58;;;;;;;15.05;84.28;98808.44;4363637;32;20087;-72
2022/07/08 02:01:09;;;;;;;4.87;3.10;;;;;;;15.07;84.13;98795.91;4363541;32;20107;-72
2022/07/08 02:03:36;;;;;;;3.30;2.78;;;;;;;15.05;84.25;98807.62;4350278;32;20103;-72
2022/07/08 02:06:04;;;;;;;2.95;2.65;;;;;;;15.02;84.40;98807.97;4364495;32;20154;-72
2022/07/08 02:08:31;;;;;;;3.70;2.60;;;;;;;15.00;84.65;98810.75;4365417;32;20398;-72
2022/07/08 02:13:44;;;;;;;5.85;2.90;;;;;;;14.97;84.88;98810.25;4365498;32;20087;-72
2022/07/08 02:16:11;;;;;;;5.57;2.75;;;;;;;14.95;85.12;98806.97;4365206;32;20389;-72
2022/07/08 02:18:39;;;;;;;2.95;2.65;;;;;;;14.94;85.25;98816.66;4351958;32;20099;-72
2022/07/08 02:21:07;;;;;;;3.30;3.00;;;;;;;14.89;85.50;98819.81;4365370;32;20088;-72
2022/07/08 02:23:34;;;;;;;3.37;2.90;;;;;;;14.89;85.58;98819.81;4365293;32;20134;-72
2022/07/08 02:26:02;;;;;;;5.30;2.95;;;;;;;14.86;85.84;98816.69;4365269;32;20087;-72
2022/07/08 02:28:29;;;;;;;3.92;2.58;;;;;;;14.82;86.29;98825.91;4365220;32;20091;-72
2022/07/08 02:30:57;;;;;;;4.78;2.75;;;;;;;14.77;86.61;98822.94;4365305;32;20111;-72
2022/07/08 02:33:24;;;;;;;4.03;2.62;;;;;;;14.78;86.81;98821.97;4365265;32;20111;-72
2022/07/08 02:35:51;;;;;;;4.30;2.85;;;;;;;14.73;87.00;98828.53;4365203;32;20141;-72
2022/07/08 02:38:20;;;;;;;5.12;2.97;;;;;;;14.71;87.27;98827.03;4365331;32;20487;-72
2022/07/08 02:40:47;;;;;;;3.70;2.75;;;;;;;14.61;87.91;98832.47;4365243;32;20114;-72
2022/07/08 02:43:14;;;;;;;4.68;2.85;;;;;;;14.57;88.25;98827.66;4365025;32;20087;-72
2022/07/08 02:45:41;;;;;;;6.10;2.92;;;;;;;14.53;88.42;98820.06;4365126;32;20106;-72
2022/07/08 02:48:09;;;;;;;4.32;3.08;;;;;;;14.66;87.73;98816.97;4364956;32;20091;-72
2022/07/08 02:50:36;;;;;;;3.60;3.08;;;;;;;14.58;88.19;98822.22;4365251;32;20476;-72
2022/07/08 02:53:03;;;;;;;4.55;3.72;;;;;;;14.60;88.06;98825.50;4365115;32;20107;-72
2022/07/08 02:55:30;;;;;;;4.95;2.80;;;;;;;14.62;87.97;98826.19;4351630;32;20437;-72
2022/07/08 02:57:58;;;;;;;4.45;2.65;;;;;;;14.62;87.91;98823.56;4364922;32;20095;-72
2022/07/08 03:00:25;;;;;;;3.20;2.72;;;;;;;14.68;87.62;98832.63;4365183;32;20091;-72
2022/07/08 03:02:52;;;;;;;3.75;2.97;;;;;;;14.68;87.50;98828.19;4365057;32;20162;-72
2022/07/08 03:05:20;;;;;;;4.85;3.33;;;;;;;14.76;87.13;98824.75;4365066;32;20087;-72
2022/07/08 03:07:47;;;;;;;3.75;3.00;;;;;;;14.71;87.27;98819.13;4364837;32;20087;-72
2022/07/08 03:10:14;;;;;;;5.28;3.10;;;;;;;14.76;87.04;98821.28;4364976;32;20126;-72
2022/07/08 03:12:41;;;;;;;3.33;2.40;;;;;;;14.78;86.89;98827.22;4364910;32;20449;-72
2022/07/08 03:15:08;;;;;;;2.35;2.12;;;;;;;14.75;87.07;98838.91;4364954;32;20539;-72
2022/07/08 03:17:36;;;;;;;4.65;2.60;;;;;;;14.80;86.80;98851.63;4364903;32;20343;-72
2022/07/08 03:20:04;;;;;;;4.10;2.45;;;;;;;14.78;86.83;98837.78;4351610;32;20132;-72
2022/07/08 03:22:33;;;;;;;4.25;2.67;;;;;;;14.80;86.74;98841.06;4364861;32;20090;-72
2022/07/08 03:25:00;;;;;;;4.28;2.85;;;;;;;14.69;87.21;98845.66;4364881;32;20103;-72
2022/07/08 03:27:28;;;;;;;4.62;2.85;;;;;;;14.70;87.05;98836.78;4364779;32;20102;-72
2022/07/08 03:29:55;;;;;;;4.45;2.62;;;;;;;14.66;87.35;98845.97;4364913;32;20098;-72
2022/07/08 03:32:23;;;;;;;3.45;2.72;;;;;;;14.68;87.28;98833.44;4364620;32;20118;-72
2022/07/08 03:34:50;;;;;;;4.40;2.83;;;;;;;14.71;87.13;98833.13;4365022;32;20083;-72
2022/07/08 03:37:17;;;;;;;5.03;2.55;;;;;;;14.68;87.18;98844.00;4365128;32;20394;-72
2022/07/08 03:39:45;;;;;;;4.18;2.90;;;;;;;14.68;87.07;98838.72;4364802;32;20173;-72
2022/07/08 03:42:12;;;;;;;4.28;2.85;;;;;;;14.73;86.73;98841.72;4364864;32;20091;-72
2022/07/08 03:44:39;;;;;;;4.43;2.90;;;;;;;14.81;86.43;98842.72;4364855;32;20080;-72
2022/07/08 03:47:06;;;;;;;3.45;2.70;;;;;;;14.79;86.50;98840.25;4364793;32;20441;-72
2022/07/08 03:49:34;;;;;;;3.00;2.60;;;;;;;14.78;86.54;98845.69;4364868;32;20107;-72
2022/07/08 03:52:01;;;;;;;4.05;2.62;;;;;;;14.82;86.46;98845.19;4364870;32;20533;-72
2022/07/08 03:54:28;;;;;;;5.85;2.78;;;;;;;14.84;86.51;98842.41;4364809;32;20113;-72
2022/07/08 03:56:56;;;;;;;2.65;2.35;;;;;;;14.79;86.77;98844.69;4364583;32;20092;-72
2022/07/08 03:59:23;;;;;;;4.78;3.25;;;;;;;14.76;86.90;98843.22;4364679;32;20172;-72
2022/07/08 04:01:50;;;;;;;3.92;2.85;;;;;;;14.85;86.76;98849.31;4364716;32;20492;-72
2022/07/08 04:04:18;;;;;;;3.10;2.60;;;;;;;14.88;86.31;98848.97;4364613;32;20091;-72
2022/07/08 04:06:45;;;;;;;4.00;2.80;;;;;;;14.94;86.28;98852.78;4364578;32;20079;-72
2022/07/08 04:09:12;;;;;;;3.10;2.55;;;;;;;14.95;86.40;98854.44;4364410;32;20090;-72
2022/07/08 04:11:41;;;;;;;5.55;3.17;;;;;;;14.95;86.20;98859.72;4364490;32;20095;-72
2022/07/08 04:14:09;;;;;;;4.53;2.75;;;;;;;15.02;85.76;98864.19;4351289;32;20604;-72
2022/07/08 04:16:36;;;;;;;3.85;2.42;;;;;;;15.10;85.55;98867.81;4364192;32;20095;-72
2022/07/08 04:19:03;;;;;;;3.37;2.80;;;;;;;15.10;85.72;98857.28;4364622;32;20121;-72
2022/07/08 04:21:30;;;;;;;3.22;2.92;;;;;;;15.06;85.66;98865.50;4364595;32;20442;-72
2022/07/08 04:23:59;;;;;;;4.12;2.83;;;;;;;15.04;85.75;98851.66;4351182;32;20485;-72
2022/07/08 04:26:31;;;;;;;2.78;2.20;;;;;;;15.17;85.34;98863.53;4364740;32;20110;-72
2022/07/08 04:28:59;;;;;;;3.05;2.75;;;;;;;15.20;84.93;98847.34;4363873;32;20449;-72
2022/07/08 04:31:26;;;;;;;4.07;2.78;;;;;;;15.25;84.63;98856.44;4364492;32;20121;-72
2022/07/08 04:33:54;;;;;;;5.47;2.62;;;;;;;15.25;84.54;98856.44;4364449;32;20096;-72
2022/07/08 04:36:21;;;;;;;4.00;2.60;;;;;;;15.23;84.48;98857.59;4364448;32;20543;-72
2022/07/08 04:38:48;;;;;;;4.07;2.83;;;;;;;15.26;84.44;98858.09;4364370;32;20122;-72
2022/07/08 04:41:16;;;;;;;3.03;2.70;;;;;;;15.28;84.35;98857.94;4364388;32;20115;-72
2022/07/08 04:43:46;;;;;;;4.60;2.80;;;;;;;15.28;84.38;98857.94;4364521;32;20228;-72
2022/07/08 04:46:14;;;;;;;3.22;2.83;;;;;;;15.34;84.22;98867.81;4364282;32;20071;-72
2022/07/08 04:48:41;;;;;;;3.70;2.75;;;;;;;15.38;83.89;98861.22;4364122;32;20095;-72
2022/07/08 04:51:09;;;;;;;2.80;2.47;;;;;;;15.55;83.29;98866.50;4364294;32;20450;-72
2022/07/08 04:53:36;;;;;;;2.92;2.47;;;;;;;15.71;82.68;98865.66;4364599;32;20115;-71
2022/07/08 04:56:04;;;;;;;7.05;2.83;;;;;;;15.86;81.86;98873.75;4364329;32;20099;-72
2022/07/08 04:58:31;;;;;;;5.97;2.35;;;;;;;16.09;80.73;98869.41;4364249;32;20505;-72
2022/07/08 05:00:58;;;;;;;2.97;2.58;;;;;;;16.13;80.32;98867.22;4364224;32;20095;-72
2022/07/08 05:03:26;;;;;;;5.78;2.87;;;;;;;16.20;79.80;98885.84;4364286;32;20437;-72
2022/07/08 05:06:01;;;;;;;9.05;2.75;;;;;;;16.29;79.40;98885.66;4364286;32;20098;-72
2022/07/08 05:08:28;;;;;;;3.97;2.65;;;;;;;16.35;79.11;98889.47;4364100;32;20099;-72
2022/07/08 05:10:56;;;;;;;3.17;2.47;;;;;;;16.43;78.67;98880.66;4364213;32;20161;-72
2022/07/08 05:13:23;;;;;;;4.32;2.78;;;;;;;16.48;78.44;98889.72;4364200;32;20083;-72
2022/07/08 05:15:51;;;;;;;3.58;2.62;;;;;;;16.50;78.18;98885.09;4363692;32;20083;-72
2022/07/08 05:18:18;;;;;;;3.83;2.87;;;;;;;16.44;78.22;98904.28;4364187;32;20098;-72
2022/07/08 05:20:45;;;;;;;3.40;2.55;;;;;;;16.40;78.39;98896.87;4364157;32;20091;-72
2022/07/08 05:23:13;;;;;;;3.42;2.80;;;;;;;16.39;78.25;98896.03;4363973;32;20087;-72
2022/07/08 05:25:40;;;;;;;3.10;2.80;;;;;;;16.45;77.99;98903.28;4364012;32;20079;-72
2022/07/08 05:28:07;;;;;;;3.62;2.53;;;;;;;16.46;77.62;98897.00;4364254;32;20098;-72
2022/07/08 05:30:35;;;;;;;4.65;3.10;;;;;;;16.49;77.98;98901.94;4364053;32;20095;-72
2022/07/08 05:33:02;;;;;;;5.10;2.80;;;;;;;16.72;76.99;98909.13;4364008;32;20559;-72
2022/07/08 05:35:29;;;;;;;3.15;2.20;;;;;;;16.89;76.56;98912.53;4364028;32;20117;-72
2022/07/08 05:37:57;;;;;;;4.03;2.72;;;;;;;17.15;75.33;98914.00;4364122;32;20123;-72
2022/07/08 05:40:24;;;;;;;3.25;2.80;;;;;;;17.35;74.30;98925.81;4362696;32;20610;-72
2022/07/08 05:42:51;;;;;;;3.35;2.90;;;;;;;17.53;74.30;98920.19;4363944;32;20083;-72
2022/07/08 05:45:19;;;;;;;3.95;2.50;;;;;;;17.59;73.18;98931.06;4363699;32;20442;-72
2022/07/08 05:47:46;;;;;;;2.87;2.30;;;;;;;17.66;73.02;98929.38;4363721;32;20095;-72
2022/07/08 05:50:13;;;;;;;3.58;2.47;;;;;;;17.68;73.38;98927.34;4363710;32;20098;-72
2022/07/08 05:52:41;;;;;;;4.15;2.35;;;;;;;17.86;72.49;98934.97;4363760;32;20567;-72
2022/07/08 05:55:09;;;;;;;5.40;2.37;;;;;;;18.17;71.24;98926.06;4363864;32;20125;-72
2022/07/08 05:57:36;;;;;;;3.12;2.33;;;;;;;18.47;69.92;98937.53;4363540;32;20445;-72
2022/07/08 06:00:04;;;;;;;2.58;2.35;;;;;;;18.50;69.10;98934.50;4363572;32;20091;-72
2022/07/08 06:02:38;;;;;;;3.72;2.50;;;;;;;18.53;69.11;98935.94;4363739;32;20134;-72
2022/07/08 06:05:05;;;;;;;3.35;2.10;;;;;;;18.72;68.64;98937.22;4363631;32;20083;-72
2022/07/08 06:07:33;;;;;;;2.72;2.35;;;;;;;18.50;68.96;98939.81;4363513;32;20450;-72
2022/07/08 06:10:00;;;;;;;7.75;2.72;;;;;;;18.75;67.78;98934.19;4363452;32;20161;-72
2022/07/08 06:12:28;;;;;;;3.95;2.30;;;;;;;18.69;68.51;98934.94;4363661;32;20491;-72
2022/07/08 06:14:55;;;;;;;2.83;2.53;;;;;;;18.79;67.42;98940.78;4363361;32;20149;-72
2022/07/08 06:17:22;;;;;;;4.65;2.62;;;;;;;18.87;67.43;98934.56;4363367;32;20094;-72
2022/07/08 06:19:49;;;;;;;3.47;2.53;;;;;;;19.04;67.23;98946.59;4363136;32;20874;-72
2022/07/08 06:22:16;;;;;;;2.62;2.35;;;;;;;19.31;65.75;98937.06;4363457;32;20079;-72
2022/07/08 06:24:43;;;;;;;3.53;2.55;;;;;;;19.11;66.50;98944.84;4363315;32;20425;-72
2022/07/08 06:30:42;;;;;;;3.17;2.65;;;;;;;19.01;66.04;98956.78;4363419;32;20508;-72
2022/07/08 06:33:10;;;;;;;3.65;2.65;;;;;;;19.11;66.42;98949.34;4363209;32;20087;-72
2022/07/08 06:35:37;;;;;;;4.47;2.60;;;;;;;19.19;66.15;98946.56;4363187;32;20107;-72
2022/07/08 06:38:04;;;;;;;5.22;2.30;;;;;;;19.39;65.69;98959.22;4363287;32;20119;-72
2022/07/08 06:40:31;;;;;;;2.92;2.60;;;;;;;19.69;64.86;98952.75;4363197;32;20177;-72
2022/07/08 06:42:59;;;;;;;3.30;2.53;;;;;;;19.69;63.69;98952.75;4363120;32;20441;-72
2022/07/08 06:45:27;;;;;;;3.67;2.70;;;;;;;19.91;63.44;98960.72;4363072;32;20083;-72
2022/07/08 06:47:54;;;;;;;3.33;2.92;;;;;;;19.67;63.65;98954.78;4363047;32;20103;-72
2022/07/08 06:50:22;;;;;;;2.85;2.55;;;;;;;19.73;63.53;98955.84;4363145;32;20442;-72
2022/07/08 06:52:49;;;;;;;5.70;2.80;;;;;;;19.80;63.01;98958.59;4364760;32;20425;-72
2022/07/08 06:55:16;;;;;;;7.43;2.80;;;;;;;19.60;63.94;98959.19;4365110;32;20496;-72
2022/07/08 06:57:44;;;;;;;2.95;2.50;;;;;;;20.01;62.79;98963.03;4364920;32;20434;-72
2022/07/08 07:00:12;;;;;;;4.35;2.90;;;;;;;20.23;62.24;98953.19;4365068;32;20111;-72
2022/07/08 07:02:46;;;;;;;4.78;2.70;;;;;;;20.35;61.26;98953.47;4365088;32;20110;-72
2022/07/08 07:05:13;;;;;;;3.12;2.80;;;;;;;20.26;60.97;98947.47;4364995;32;20095;-72
2022/07/08 07:07:40;;;;;;;5.47;2.90;;;;;;;20.41;61.00;98959.81;4365107;32;20099;-72
2022/07/08 07:10:08;;;;;;;3.80;2.60;;;;;;;20.20;61.25;98950.91;4364892;32;20114;-72
2022/07/08 07:12:36;;;;;;;4.05;2.58;;;;;;;20.17;61.12;98951.31;4365007;32;20084;-72
2022/07/08 07:15:03;;;;;;;3.47;2.55;;;;;;;20.49;60.27;98959.66;4365033;32;20113;-72
2022/07/08 07:17:31;;;;;;;3.45;2.00;;;;;;;20.52;59.28;98957.44;4364776;32;20103;-72
2022/07/08 07:19:58;;;;;;;5.43;2.67;;;;;;;20.67;59.17;98959.19;4364938;32;20095;-72
2022/07/08 07:22:27;;;;;;;5.78;2.50;;;;;;;20.73;58.86;98963.72;4364836;32;20121;-72
2022/07/08 07:24:54;;;;;;;4.20;2.53;;;;;;;20.65;59.09;98962.03;4364854;32;20079;-72
2022/07/08 07:27:21;;;;;;;4.50;2.12;;;;;;;20.77;58.51;98961.47;4364803;32;20090;-72
2022/07/08 07:29:48;;;;;;;5.75;2.58;;;;;;;20.89;57.82;98959.88;4364932;32;20125;-72
2022/07/08 07:32:16;;;;;;;4.12;2.50;;;;;;;20.81;58.28;98966.19;4364837;32;20152;-72
2022/07/08 07:34:43;;;;;;;7.28;2.62;;;;;;;20.83;57.49;98958.84;4364800;32;20464;-72
2022/07/08 07:37:10;;;;;;;3.90;2.75;;;;;;;20.88;57.97;98976.88;4364813;32;20172;-72
2022/07/08 07:39:37;;;;;;;2.42;2.22;;;;;;;21.11;57.54;98970.41;4364620;32;20091;-72
2022/07/08 07:42:05;;;;;;;3.92;2.80;;;;;;;21.12;57.28;98964.87;4364925;32;20103;-72
2022/07/08 07:44:32;;;;;;;5.15;2.60;;;;;;;21.43;56.51;98974.97;4364721;32;20095;-72
2022/07/08 07:46:59;;;;;;;2.97;2.67;;;;;;;21.47;55.97;98969.22;4364779;32;20125;-72
2022/07/08 07:49:26;;;;;;;5.03;2.60;;;;;;;21.52;55.45;98985.50;4364599;32;20091;-72
2022/07/08 07:51:53;;;;;;;6.28;3.25;;;;;;;21.39;55.99;98979.09;4364729;32;20524;-72
2022/07/08 07:54:21;;;;;;;2.65;2.45;;;;;;;21.52;55.96;98974.81;4364743;32;20095;-72
2022/07/08 07:56:48;;;;;;;5.15;2.65;;;;;;;21.68;55.49;98973.59;4364698;32;20358;-72
2022/07/08 07:59:15;;;;;;;6.22;2.50;;;;;;;21.97;54.93;98975.06;4364549;32;20563;-72
2022/07/08 08:01:42;;;;;;;5.00;2.42;;;;;;;21.96;54.20;98968.06;4364775;32;20434;-72
2022/07/08 08:04:10;;;;;;;2.72;2.53;;;;;;;22.13;54.44;98974.63;4363846;32;20126;-73
2022/07/08 08:06:37;;;;;;;6.37;2.37;;;;;;;22.25;54.18;98982.00;4364660;32;20099;-72
2022/07/08 08:09:04;;;;;;;5.68;2.28;;;;;;;22.07;54.12;98979.97;4364506;32;20110;-72
2022/07/08 08:11:31;;;;;;;4.50;2.50;;;;;;;22.00;53.87;98979.97;4364527;32;20461;-72
2022/07/08 08:13:59;;;;;;;3.37;2.22;;;;;;;22.18;53.62;98986.50;4364502;32;20098;-72
2022/07/08 08:16:26;;;;;;;2.47;2.28;;;;;;;22.42;53.13;98980.56;4364388;32;20095;-72
2022/07/08 08:18:54;;;;;;;4.03;2.40;;;;;;;22.52;51.74;98981.97;4364635;32;20520;-72
2022/07/08 08:21:21;;;;;;;2.75;2.25;;;;;;;22.51;51.54;98975.81;4364573;32;20161;-72
2022/07/08 08:23:48;;;;;;;4.57;2.40;;;;;;;22.58;51.63;98986.47;4364451;32;20087;-72
2022/07/08 08:26:16;;;;;;;2.72;2.53;;;;;;;22.78;51.76;98984.53;4364562;32;20773;-72
2022/07/08 08:28:43;;;;;;;3.08;2.28;;;;;;;22.72;51.52;98990.72;4364398;32;20421;-72
2022/07/08 08:31:10;;;;;;;3.62;2.58;;;;;;;22.79;50.92;98983.53;4364515;32;20083;-72
2022/07/08 08:33:38;;;;;;;3.70;2.30;;;;;;;23.16;50.30;98988.31;4364448;32;20099;-72
2022/07/08 08:36:05;;;;;;;4.28;2.72;;;;;;;22.83;50.42;98982.06;4364457;32;20402;-72
2022/07/08 08:38:32;;;;;;;2.78;2.37;;;;;;;23.24;50.32;98974.72;4364469;32;20103;-72
2022/07/08 08:41:00;;;;;;;3.47;2.50;;;;;;;23.54;49.32;98985.63;4364280;32;20091;-72
2022/07/08 08:43:28;;;;;;;5.22;2.50;;;;;;;23.34;48.97;98980.41;4351104;32;20109;-73
2022/07/08 08:45:56;;;;;;;2.97;2.33;;;;;;;23.28;49.51;98983.94;4364492;32;20102;-73
2022/07/08 08:48:24;;;;;;;11.27;2.53;;;;;;;23.66;48.86;98984.94;4364622;32;20503;-72
2022/07/08 08:50:53;;;;;;;3.65;2.72;;;;;;;23.49;49.20;98990.78;4350732;32;20441;-72
2022/07/08 08:53:26;;;;;;;3.60;2.80;;;;;;;23.62;48.94;98994.41;4364342;32;20456;-72
2022/07/08 08:55:55;;;;;;;;;;;;;;;23.87;48.26;98995.28;4364777;32;20106;-72
2022/07/08 08:58:23;;;;;;;3.28;2.50;;;;;;;24.20;47.44;98991.50;4364464;32;20014;-72
2022/07/08 09:00:50;;;;;;;4.78;2.35;;;;;;;23.96;46.92;99003.84;4364132;32;20091;-72
2022/07/08 09:03:17;;;;;;;4.72;2.40;;;;;;;23.45;48.11;98996.78;4364210;32;20565;-72
2022/07/08 09:05:45;;;;;;;3.15;2.50;;;;;;;23.74;47.66;98990.84;4364203;32;20091;-72
2022/07/08 09:08:13;;;;;;;3.22;2.25;;;;;;;24.03;47.26;98988.56;4364367;32;20094;-72
2022/07/08 09:10:40;;;;;;;5.70;2.40;;;;;;;23.61;47.43;98984.78;4364059;32;20105;-72
2022/07/08 09:13:12;;;;;;;6.40;2.53;;;;;;;23.62;47.29;98989.91;4364375;32;20099;-73
2022/07/08 09:15:45;;;;;;;3.28;2.53;;;;;;;23.53;47.07;98985.84;4363640;32;20107;-72
2022/07/08 09:18:18;;;;;;;2.80;2.50;;;;;;;23.58;46.98;98987.87;4350891;32;20095;-72
2022/07/08 09:20:52;;;;;;;2.85;2.22;;;;;;;24.25;45.75;98991.69;4364153;32;20402;-72
2022/07/08 09:23:20;;;;;;;4.47;2.03;;;;;;;24.76;44.01;98986.22;4364106;32;20083;-73
2022/07/08 09:25:49;;;;;;;4.03;2.40;;;;;;;25.17;43.22;98983.84;4364028;32;20122;-73
2022/07/08 09:28:29;;;;;;;3.40;2.65;;;;;;;24.85;43.32;98995.59;4364058;32;20099;-72
2022/07/08 09:30:59;;;;;;;2.62;2.20;;;;;;;24.42;44.37;98997.28;4363941;32;20079;-73
2022/07/08 09:33:27;;;;;;;5.82;2.83;;;;;;;24.12;44.51;98994.47;4363936;32;20084;-72
2022/07/08 09:35:56;;;;;;;3.17;2.35;;;;;;;23.94;45.51;98997.91;4363805;32;20115;-72
2022/07/08 09:38:24;;;;;;;3.97;2.10;;;;;;;24.23;45.13;98993.72;4363980;32;20114;-72
2022/07/08 09:40:59;;;;;;;4.53;2.20;;;;;;;24.50;44.57;98993.47;4363850;32;20083;-73
2022/07/08 09:43:26;;;;;;;2.55;2.12;;;;;;;24.85;43.74;98990.22;4364002;32;20109;-73
2022/07/08 09:45:54;;;;;;;2.65;2.12;;;;;;;24.80;43.64;98998.12;4363943;32;20122;-73
2022/07/08 09:48:29;;;;;;;4.12;1.90;;;;;;;24.70;43.49;98987.13;4363888;32;20086;-72
2022/07/08 09:50:59;;;;;;;4.95;2.22;;;;;;;24.92;42.92;98999.00;4363742;32;20437;-72
2022/07/08 09:53:32;;;;;;;2.62;2.20;;;;;;;24.73;42.95;98992.03;4363834;32;20102;-72
2022/07/08 09:56:01;;;;;;;4.65;2.45;;;;;;;24.90;43.06;98986.87;4363798;32;20143;-73
2022/07/08 09:58:30;;;;;;;3.12;2.28;;;;;;;25.52;42.20;98983.97;4363820;32;20110;-73
2022/07/08 10:00:58;;;;;;;2.80;2.53;;;;;;;26.18;41.00;98992.84;4363675;32;20446;-73
2022/07/08 10:03:26;;;;;;;3.65;2.30;;;;;;;25.56;41.77;98989.72;4363671;32;20465;-73
2022/07/08 10:05:57;;;;;;;2.33;2.12;;;;;;;25.36;41.73;98993.53;4363667;32;20118;-73
2022/07/08 10:08:24;;;;;;;4.75;2.20;;;;;;;24.96;42.75;98997.50;4363680;32;20113;-73
2022/07/08 10:10:53;;;;;;;3.08;2.67;;;;;;;24.71;42.72;98999.44;4363444;32;20095;-72
2022/07/08 10:13:21;;;;;;;2.70;2.50;;;;;;;24.69;43.37;99001.53;4363567;32;20488;-72
2022/07/08 10:15:49;;;;;;;3.37;2.37;;;;;;;24.68;42.80;98999.91;4350060;32;20154;-72
2022/07/08 10:18:30;;;;;;;3.15;2.05;;;;;;;24.77;42.77;98998.59;4350116;32;20173;-72
2022/07/08 10:20:57;;;;;;;2.87;2.15;;;;;;;25.01;42.82;98998.69;4363558;32;20110;-72
2022/07/08 10:23:28;;;;;;;4.03;2.08;;;;;;;25.16;42.33;98996.41;4363352;32;20138;-72
2022/07/08 10:25:58;;;;;;;2.60;2.30;;;;;;;25.13;42.13;99000.38;4350125;32;20121;-72
2022/07/08 10:28:41;;;;;;;3.67;2.40;;;;;;;25.39;41.75;98997.59;4351891;32;20169;-73
2022/07/08 10:31:23;;;;;;;3.28;2.10;;;;;;;25.44;41.73;99005.78;4351859;32;20083;-73
2022/07/08 10:33:51;;;;;;;2.65;2.28;;;;;;;25.23;42.71;99012.44;4365403;32;20113;-72
2022/07/08 10:36:22;;;;;;;7.28;2.35;;;;;;;24.66;43.31;99007.34;4365530;32;20507;-73
2022/07/08 10:38:50;;;;;;;4.90;2.55;;;;;;;24.55;43.53;99009.69;4365284;32;20149;-72
2022/07/08 10:41:23;;;;;;;2.47;2.28;;;;;;;24.60;43.42;99012.56;4365203;32;20091;-73
2022/07/08 10:43:53;;;;;;;7.45;1.98;;;;;;;24.69;43.59;99014.94;4365205;32;20468;-73
2022/07/08 10:46:21;;;;;;;5.10;2.28;;;;;;;24.80;42.91;99008.84;4365155;32;20099;-73
2022/07/08 10:48:53;;;;;;;2.40;1.87;;;;;;;24.84;43.23;99004.66;4365280;32;20095;-73
2022/07/08 10:51:32;;;;;;;2.67;2.22;;;;;;;24.89;42.67;99012.03;4365090;32;20858;-73
2022/07/08 10:54:09;;;;;;;3.37;2.10;;;;;;;24.98;42.70;99014.19;4365300;32;20084;-72
2022/07/08 10:56:49;;;;;;;2.58;2.08;;;;;;;24.71;42.34;99019.03;4365056;32;20138;-73
2022/07/08 10:59:26;;;;;;;5.68;2.30;;;;;;;24.92;42.36;99017.78;4359181;32;20099;-73
2022/07/08 11:02:15;;;;;;;7.47;2.30;;;;;;;25.07;41.38;99014.69;4365265;32;20106;-73
2022/07/08 11:04:42;;;;;;;2.90;1.77;;;;;;;24.96;41.09;99016.25;4351920;32;20105;-73
2022/07/08 11:07:16;;;;;;;4.05;1.90;;;;;;;25.18;39.97;99015.78;4365075;32;20119;-73
2022/07/08 11:09:48;;;;;;;3.30;1.90;;;;;;;25.21;39.98;99015.34;4365050;32;20082;-73
2022/07/08 11:12:20;;;;;;;2.47;2.10;;;;;;;25.15;40.39;99018.94;4364959;32;20484;-73
2022/07/08 11:14:49;;;;;;;2.78;1.70;;;;;;;25.07;39.17;99027.28;4365278;32;20223;-73
2022/07/08 11:17:17;;;;;;;2.50;2.30;;;;;;;25.18;38.85;99018.47;4364674;32;20091;-73
2022/07/08 11:19:45;;;;;;;1.90;1.80;;;;;;;25.02;40.88;99027.13;4364969;32;20126;-73
2022/07/08 11:22:13;;;;;;;3.87;1.83;;;;;;;25.07;40.64;99019.22;4365010;32;20114;-72
2022/07/08 11:24:54;;;;;;;2.85;1.70;;;;;;;24.96;39.32;99026.97;4365246;32;20158;-73
2022/07/08 11:27:26;;;;;;;2.60;1.70;;;;;;;25.11;38.05;99023.91;4364829;32;20086;-73
2022/07/08 11:29:55;;;;;;;2.90;1.60;;;;;;;25.07;37.58;99027.28;4351535;32;20126;-73
2022/07/08 11:32:24;;;;;;;1.60;1.50;;;;;;;24.85;37.78;99032.28;4365034;32;20145;-73
2022/07/08 11:34:52;;;;;;;3.83;1.62;;;;;;;25.24;38.08;99028.28;4364911;32;20150;-73
2022/07/08 11:37:20;;;;;;;2.33;1.67;;;;;;;25.46;37.35;99030.50;4364956;32;20126;-73
2022/07/08 11:39:48;;;;;;;4.68;1.75;;;;;;;25.58;36.83;99026.00;4364723;32;20099;-73
2022/07/08 11:42:15;;;;;;;4.22;1.67;;;;;;;25.95;36.26;99033.91;4364895;32;20103;-73
2022/07/08 11:44:43;;;;;;;1.65;1.42;;;;;;;26.17;35.89;99033.37;4364715;32;20083;-73